createdAt,value
2018-07-31T00:00:19.681Z,63.99
2018-07-31T00:05:24.393Z,63.66
2018-07-31T00:10:29.168Z,64.66
2018-07-31T00:15:33.856Z,64.10
2018-07-31T00:20:38.563Z,65.36
2018-07-31T00:25:43.216Z,65.60
2018-07-31T00:30:47.907Z,65.51
2018-07-31T00:35:52.642Z,64.63
2018-07-31T00:40:56.980Z,65.63
2018-07-31T00:46:01.656Z,66.93
2018-07-31T00:51:06.347Z,68.37
2018-07-31T00:56:11.220Z,68.95
2018-07-31T01:01:15.933Z,68.40
2018-07-31T01:06:25.855Z,69.32
2018-07-31T01:11:30.573Z,67.80
2018-07-31T01:16:35.243Z,67.65
2018-07-31T01:21:40.702Z,67.97
2018-07-31T01:26:45.382Z,69.04
2018-07-31T01:31:50.114Z,71.07
2018-07-31T01:36:54.954Z,71.51
2018-07-31T01:41:59.607Z,70.52
2018-07-31T01:47:04.206Z,70.35
2018-07-31T01:52:08.919Z,70.54
2018-07-31T01:57:13.679Z,70.06
2018-07-31T02:02:18.407Z,70.86
2018-07-31T02:12:26.776Z,71.12
2018-07-31T02:17:31.462Z,72.17
2018-07-31T02:22:36.148Z,73.56
2018-07-31T02:27:40.951Z,73.17
2018-07-31T02:32:45.699Z,72.52
2018-07-31T02:37:50.704Z,74.19
2018-07-31T02:42:55.413Z,75.09
2018-07-31T02:48:00.081Z,73.71
2018-07-31T02:53:04.736Z,74.31
2018-07-31T02:58:09.504Z,74.06
2018-07-31T03:03:14.140Z,75.44
2018-07-31T03:08:18.931Z,75.47
2018-07-31T03:13:23.612Z,76.39
2018-07-31T03:18:28.241Z,75.28
2018-07-31T03:23:32.870Z,75.74
2018-07-31T03:28:37.611Z,75.06
2018-07-31T03:33:42.260Z,74.03
2018-07-31T03:38:46.924Z,74.86
2018-07-31T03:43:51.551Z,74.98
2018-07-31T03:48:56.278Z,74.59
2018-07-31T03:54:01.029Z,74.24
2018-07-31T03:59:06.017Z,75.55
2018-07-31T04:04:10.959Z,75.15
2018-07-31T04:09:15.663Z,74.24
2018-07-31T04:14:20.295Z,73.12
2018-07-31T04:19:25.098Z,72.52
2018-07-31T04:24:29.887Z,69.60
2018-07-31T04:29:34.698Z,66.80
2018-07-31T04:34:39.455Z,62.14
2018-07-31T04:39:44.196Z,60.10
2018-07-31T04:44:48.868Z,60.31
2018-07-31T04:49:53.471Z,56.64
2018-07-31T04:54:58.137Z,56.17
2018-07-31T05:00:03.258Z,55.37
2018-07-31T05:05:08.017Z,55.74
2018-07-31T05:10:14.002Z,54.85
2018-07-31T05:15:18.696Z,52.96
2018-07-31T05:20:23.329Z,51.42
2018-07-31T05:25:28.124Z,50.54
2018-07-31T05:30:32.816Z,51.04
2018-07-31T05:35:37.449Z,48.98
2018-07-31T05:40:43.219Z,50.20
2018-07-31T05:45:48.778Z,47.55
2018-07-31T05:50:53.615Z,45.98
2018-07-31T05:55:58.349Z,47.34
2018-07-31T06:01:03.146Z,47.23
2018-07-31T06:06:08.041Z,50.69
2018-07-31T06:11:12.801Z,51.04
2018-07-31T06:16:17.616Z,50.21
2018-07-31T06:21:22.324Z,49.46
2018-07-31T06:26:27.037Z,51.60
2018-07-31T06:31:31.757Z,52.08
2018-07-31T06:36:36.535Z,52.83
2018-07-31T06:41:41.204Z,48.10
2018-07-31T06:46:45.962Z,51.09
2018-07-31T06:51:50.669Z,50.93
2018-07-31T06:56:55.330Z,50.19
2018-07-31T07:02:00.048Z,49.83
2018-07-31T07:07:04.698Z,48.00
2018-07-31T07:12:09.496Z,46.85
2018-07-31T07:17:14.300Z,45.36
2018-07-31T07:22:19.007Z,42.60
2018-07-31T07:27:23.780Z,42.75
2018-07-31T07:32:28.628Z,41.16
2018-07-31T07:37:33.344Z,39.28
2018-07-31T07:42:37.675Z,40.37
2018-07-31T07:47:42.516Z,39.47
2018-07-31T07:52:47.390Z,38.16
2018-07-31T07:57:52.221Z,36.84
2018-07-31T08:02:56.893Z,36.37
2018-07-31T08:08:01.624Z,37.21
2018-07-31T08:13:06.274Z,36.65
2018-07-31T08:18:10.962Z,35.34
2018-07-31T08:23:15.847Z,36.23
2018-07-31T08:28:20.605Z,35.60
2018-07-31T08:33:25.295Z,35.44
2018-07-31T08:38:30.024Z,34.60
2018-07-31T08:43:34.744Z,33.95
2018-07-31T08:48:39.489Z,33.33
2018-07-31T08:53:43.838Z,31.87
2018-07-31T08:58:48.496Z,31.26
2018-07-31T09:03:53.294Z,32.19
2018-07-31T09:08:58.271Z,31.01
2018-07-31T09:14:03.031Z,30.44
2018-07-31T09:19:07.744Z,30.37
2018-07-31T09:24:12.549Z,31.86
2018-07-31T09:29:17.931Z,30.49
2018-07-31T09:34:22.568Z,30.92
2018-07-31T09:39:27.358Z,30.58
2018-07-31T09:44:32.115Z,29.18
2018-07-31T09:49:36.783Z,29.10
2018-07-31T09:54:41.459Z,28.82
2018-07-31T09:59:46.171Z,29.64
2018-07-31T10:04:50.952Z,27.71
2018-07-31T10:09:55.873Z,27.93
2018-07-31T10:15:00.559Z,26.90
2018-07-31T10:20:05.508Z,27.17
2018-07-31T10:25:10.356Z,27.13
2018-07-31T10:30:15.045Z,25.25
2018-07-31T10:35:19.771Z,24.66
2018-07-31T10:40:24.553Z,24.73
2018-07-31T10:45:29.213Z,25.96
2018-07-31T10:50:33.896Z,26.50
2018-07-31T10:55:38.635Z,28.02
2018-07-31T11:00:43.390Z,27.31
2018-07-31T11:05:48.055Z,27.53
2018-07-31T11:10:52.777Z,28.19
2018-07-31T11:15:57.508Z,25.87
2018-07-31T11:21:02.318Z,26.96
2018-07-31T11:26:07.348Z,25.44
2018-07-31T11:31:12.085Z,25.04
2018-07-31T11:36:17.012Z,24.50
2018-07-31T11:41:21.828Z,22.71
2018-07-31T11:46:26.570Z,22.86
2018-07-31T11:51:31.316Z,22.85
2018-07-31T11:56:36.084Z,22.01
2018-07-31T12:01:40.780Z,22.16
2018-07-31T12:06:45.607Z,23.30
2018-07-31T12:11:50.311Z,23.91
2018-07-31T12:16:55.020Z,25.09
2018-07-31T12:21:59.712Z,25.38
2018-07-31T12:27:04.600Z,24.96
2018-07-31T12:32:09.368Z,23.68
2018-07-31T12:37:14.182Z,22.14
2018-07-31T12:42:18.804Z,20.63
2018-07-31T12:47:23.598Z,21.92
2018-07-31T12:52:28.644Z,21.78
2018-07-31T12:57:33.462Z,20.41
2018-07-31T13:02:38.169Z,21.71
2018-07-31T13:07:48.398Z,21.63
2018-07-31T13:12:53.102Z,22.27
2018-07-31T13:17:57.896Z,21.33
2018-07-31T13:23:02.572Z,21.70
2018-07-31T13:28:07.387Z,21.96
2018-07-31T13:33:12.058Z,21.21
2018-07-31T13:38:16.832Z,21.75
2018-07-31T13:43:21.466Z,22.60
2018-07-31T13:48:26.055Z,22.32
2018-07-31T13:53:30.743Z,22.07
2018-07-31T13:58:35.500Z,22.36
2018-07-31T14:03:40.236Z,22.02
2018-07-31T14:08:44.925Z,20.92
2018-07-31T14:13:49.678Z,21.84
2018-07-31T14:18:54.944Z,21.30
2018-07-31T14:23:59.609Z,21.77
2018-07-31T14:29:04.348Z,21.02
2018-07-31T14:34:09.036Z,21.62
2018-07-31T14:39:13.879Z,21.73
2018-07-31T14:44:18.521Z,21.73
2018-07-31T14:49:23.692Z,22.56
2018-07-31T14:54:28.376Z,22.38
2018-07-31T14:59:33.060Z,22.90
2018-07-31T15:04:37.790Z,23.99
2018-07-31T15:09:42.590Z,22.42
2018-07-31T15:14:47.318Z,22.19
2018-07-31T15:19:52.314Z,21.29
2018-07-31T15:24:56.986Z,21.28
2018-07-31T15:30:01.692Z,23.30
2018-07-31T15:35:06.601Z,22.43
2018-07-31T15:40:11.311Z,22.25
2018-07-31T15:45:15.999Z,24.17
2018-07-31T15:50:20.629Z,22.83
2018-07-31T15:55:25.295Z,23.98
2018-07-31T16:00:30.023Z,23.05
2018-07-31T16:05:34.785Z,24.25
2018-07-31T16:10:39.445Z,23.25
2018-07-31T16:15:44.254Z,23.35
2018-07-31T16:20:48.949Z,24.22
2018-07-31T16:25:53.740Z,23.29
2018-07-31T16:30:58.420Z,24.16
2018-07-31T16:36:03.163Z,23.15
2018-07-31T16:41:08.495Z,24.93
2018-07-31T16:46:13.565Z,25.50
2018-07-31T16:51:18.555Z,24.27
2018-07-31T16:56:23.412Z,23.15
2018-07-31T17:01:28.081Z,24.36
2018-07-31T17:06:32.759Z,25.64
2018-07-31T17:11:37.416Z,26.28
2018-07-31T17:16:42.140Z,25.11
2018-07-31T17:21:46.993Z,25.38
2018-07-31T17:26:51.669Z,25.12
2018-07-31T17:31:56.715Z,26.53
2018-07-31T17:37:01.516Z,27.41
2018-07-31T17:42:06.316Z,27.55
2018-07-31T17:47:11.428Z,29.71
2018-07-31T17:52:16.567Z,29.24
2018-07-31T17:57:21.345Z,29.94
2018-07-31T18:02:26.105Z,31.60
2018-07-31T18:07:30.892Z,31.74
2018-07-31T18:12:35.828Z,32.61
2018-07-31T18:17:40.602Z,32.48
2018-07-31T18:22:45.286Z,33.06
2018-07-31T18:27:50.153Z,34.12
2018-07-31T18:32:56.328Z,34.31
2018-07-31T18:38:01.290Z,35.13
2018-07-31T18:43:06.107Z,37.33
2018-07-31T18:48:10.805Z,37.10
2018-07-31T18:53:15.614Z,38.17
2018-07-31T18:58:20.393Z,39.19
2018-07-31T19:03:25.867Z,40.07
2018-07-31T19:08:31.535Z,42.63
2018-07-31T19:13:36.675Z,42.47
2018-07-31T19:18:41.694Z,43.15
2018-07-31T19:23:46.715Z,43.28
2018-07-31T19:28:51.626Z,43.70
2018-07-31T19:33:56.481Z,43.96
2018-07-31T19:39:01.138Z,43.89
2018-07-31T19:44:06.201Z,45.29
2018-07-31T19:49:11.050Z,44.37
2018-07-31T19:54:15.815Z,44.61
2018-07-31T19:59:20.693Z,46.38
2018-07-31T20:04:25.690Z,47.22
2018-07-31T20:09:30.791Z,46.58
2018-07-31T20:14:35.530Z,48.16
2018-07-31T20:19:40.283Z,49.18
2018-07-31T20:24:45.022Z,48.56
2018-07-31T20:29:49.910Z,48.64
2018-07-31T20:34:54.886Z,48.91
2018-07-31T20:39:59.588Z,49.97
2018-07-31T20:45:04.551Z,50.46
2018-07-31T20:50:09.433Z,50.94
2018-07-31T20:55:14.244Z,51.11
2018-07-31T21:00:19.005Z,50.97
2018-07-31T21:05:23.725Z,51.06
2018-07-31T21:10:28.494Z,52.06
2018-07-31T21:15:33.239Z,53.09
2018-07-31T21:20:37.977Z,52.56
2018-07-31T21:25:42.706Z,53.05
2018-07-31T21:30:47.463Z,53.79
2018-07-31T21:35:52.193Z,54.48
2018-07-31T21:40:57.004Z,54.59
2018-07-31T21:46:01.877Z,54.36
2018-07-31T21:51:06.656Z,56.03
2018-07-31T21:56:11.415Z,56.51
2018-07-31T22:01:16.380Z,56.30
2018-07-31T22:06:21.269Z,56.55
2018-07-31T22:11:26.038Z,56.35
2018-07-31T22:16:30.680Z,56.29
2018-07-31T22:21:35.366Z,54.93
2018-07-31T22:26:40.205Z,55.42
2018-07-31T22:31:45.045Z,56.50
2018-07-31T22:36:49.377Z,56.38
2018-07-31T22:41:54.176Z,55.87
2018-07-31T22:47:11.709Z,54.17
2018-07-31T22:52:16.405Z,55.17
2018-07-31T22:57:21.082Z,54.69
2018-07-31T23:02:25.912Z,56.11
2018-07-31T23:07:30.709Z,62.17
2018-07-31T23:12:35.566Z,70.09
2018-07-31T23:17:40.271Z,72.98
2018-07-31T23:22:48.680Z,70.35
2018-07-31T23:27:53.403Z,73.61
2018-07-31T23:32:58.091Z,70.88
2018-07-31T23:38:02.736Z,72.12
2018-07-31T23:43:07.420Z,73.80
2018-07-31T23:48:12.076Z,74.36
2018-07-31T23:53:16.719Z,77.93
2018-07-31T23:58:21.372Z,78.38
